< < Back
Terminal Aerodrome Forecast


Current Version              Previous Versions:   1  2  3  4  5  6  7  8  9  

Terminal Aerodrome Forecast

546
FTUS44 KBMX 261100
TAFMGM
TAF
KMGM 261120Z 2612/2712 17005KT 4SM BR SCT004
      TEMPO 2612/2613 1SM BR BKN004
     FM261400 20006KT P6SM SCT015 BKN035
     FM262000 21007KT P6SM VCTS BKN050CB
     FM270200 31010KT 3SM -SHRA VCTS OVC025CB
     FM270600 31011KT P6SM OVC015=

Latest METAR

294
SAUS80 KWBC 261900 RRA
MTRMGM
METAR KMGM 261853Z AUTO 18005KT 10SM CLR 24/13 A2987 RMK AO2 SLPNO
T02440128


USA.gov is the U.S. government's official web portal to all federal, state and local government web resources and services.